sensor_id;sensor_type;location;lat;lon;timestamp;pressure;altitude;pressure_sealevel;temperature;humidity
10261;BME280;5175;42.606;23.388;2023-02-26T00:00:09;92641.91;;;13.33;51.84
10261;BME280;5175;42.606;23.388;2023-02-26T00:02:40;92662.16;;;13.22;52.97
10261;BME280;5175;42.606;23.388;2023-02-26T00:05:09;92647.47;;;13.28;53.14
10261;BME280;5175;42.606;23.388;2023-02-26T00:07:36;92650.06;;;13.45;52.10
10261;BME280;5175;42.606;23.388;2023-02-26T00:10:03;92660.03;;;13.36;51.99
10261;BME280;5175;42.606;23.388;2023-02-26T00:12:31;92652.28;;;13.43;51.98
10261;BME280;5175;42.606;23.388;2023-02-26T00:14:58;92593.09;;;12.90;52.47
10261;BME280;5175;42.606;23.388;2023-02-26T00:17:33;92638.50;;;13.24;52.36
10261;BME280;5175;42.606;23.388;2023-02-26T00:20:02;92639.16;;;13.21;52.70
10261;BME280;5175;42.606;23.388;2023-02-26T00:22:31;92638.22;;;13.17;53.29
10261;BME280;5175;42.606;23.388;2023-02-26T00:24:58;92645.56;;;13.29;52.25
10261;BME280;5175;42.606;23.388;2023-02-26T00:27:25;92619.13;;;13.27;52.60
10261;BME280;5175;42.606;23.388;2023-02-26T00:29:52;92633.59;;;13.26;52.63
10261;BME280;5175;42.606;23.388;2023-02-26T00:32:19;92641.38;;;13.19;53.13
10261;BME280;5175;42.606;23.388;2023-02-26T00:34:47;92648.47;;;13.15;53.87
10261;BME280;5175;42.606;23.388;2023-02-26T00:37:25;92643.59;;;13.17;53.89
10261;BME280;5175;42.606;23.388;2023-02-26T00:40:02;92576.75;;;12.83;52.88
10261;BME280;5175;42.606;23.388;2023-02-26T00:42:34;92618.09;;;13.02;53.56
10261;BME280;5175;42.606;23.388;2023-02-26T00:45:02;92613.97;;;13.13;53.35
10261;BME280;5175;42.606;23.388;2023-02-26T00:47:34;92607.59;;;12.89;54.31
10261;BME280;5175;42.606;23.388;2023-02-26T00:50:12;92597.97;;;12.96;54.36
10261;BME280;5175;42.606;23.388;2023-02-26T00:52:45;92620.38;;;12.83;55.06
10261;BME280;5175;42.606;23.388;2023-02-26T00:55:17;92591.41;;;12.77;55.64
10261;BME280;5175;42.606;23.388;2023-02-26T00:57:44;92608.69;;;12.96;54.74
10261;BME280;5175;42.606;23.388;2023-02-26T01:00:12;92541.44;;;12.60;54.32
10261;BME280;5175;42.606;23.388;2023-02-26T01:02:39;92602.19;;;12.97;54.13
10261;BME280;5175;42.606;23.388;2023-02-26T01:05:08;92575.19;;;12.82;54.72
10261;BME280;5175;42.606;23.388;2023-02-26T01:07:39;92606.19;;;12.83;54.38
10261;BME280;5175;42.606;23.388;2023-02-26T01:10:08;92596.13;;;12.80;55.01
10261;BME280;5175;42.606;23.388;2023-02-26T01:12:38;92596.94;;;12.72;54.81
10261;BME280;5175;42.606;23.388;2023-02-26T01:15:06;92588.72;;;12.85;53.11
10261;BME280;5175;42.606;23.388;2023-02-26T01:17:36;92584.00;;;12.82;53.70
10261;BME280;5175;42.606;23.388;2023-02-26T01:20:09;92583.69;;;12.84;53.54
10261;BME280;5175;42.606;23.388;2023-02-26T01:22:44;92581.78;;;12.84;53.05
10261;BME280;5175;42.606;23.388;2023-02-26T01:25:16;92588.44;;;12.70;52.67
10261;BME280;5175;42.606;23.388;2023-02-26T01:27:45;92563.13;;;12.67;51.12
10261;BME280;5175;42.606;23.388;2023-02-26T01:30:12;92567.84;;;12.70;52.02
10261;BME280;5175;42.606;23.388;2023-02-26T01:32:43;92563.09;;;12.76;52.20
10261;BME280;5175;42.606;23.388;2023-02-26T01:35:19;92559.00;;;12.70;51.38
10261;BME280;5175;42.606;23.388;2023-02-26T01:37:52;92560.66;;;12.91;49.63
10261;BME280;5175;42.606;23.388;2023-02-26T01:40:39;92554.16;;;13.01;49.48
10261;BME280;5175;42.606;23.388;2023-02-26T01:43:16;92536.41;;;12.96;49.08
10261;BME280;5175;42.606;23.388;2023-02-26T01:45:56;92514.19;;;12.96;48.54
10261;BME280;5175;42.606;23.388;2023-02-26T01:48:35;92516.22;;;12.99;48.51
10261;BME280;5175;42.606;23.388;2023-02-26T01:51:05;92536.47;;;13.17;47.94
10261;BME280;5175;42.606;23.388;2023-02-26T01:53:34;92530.69;;;13.06;48.28
10261;BME280;5175;42.606;23.388;2023-02-26T01:56:08;92520.78;;;12.98;49.16
10261;BME280;5175;42.606;23.388;2023-02-26T01:58:38;92527.47;;;12.84;49.82
10261;BME280;5175;42.606;23.388;2023-02-26T02:01:05;92520.09;;;13.10;45.93
10261;BME280;5175;42.606;23.388;2023-02-26T02:03:36;92513.66;;;13.11;46.03
10261;BME280;5175;42.606;23.388;2023-02-26T02:06:07;92508.38;;;12.94;47.92
10261;BME280;5175;42.606;23.388;2023-02-26T02:08:36;92512.88;;;13.10;45.22
10261;BME280;5175;42.606;23.388;2023-02-26T02:11:06;92496.56;;;13.24;44.81
10261;BME280;5175;42.606;23.388;2023-02-26T02:13:53;92473.16;;;13.12;45.39
10261;BME280;5175;42.606;23.388;2023-02-26T02:16:30;92469.88;;;13.28;43.20
10261;BME280;5175;42.606;23.388;2023-02-26T02:19:12;92479.06;;;13.27;44.98
10261;BME280;5175;42.606;23.388;2023-02-26T02:21:53;92529.06;;;13.14;45.88
10261;BME280;5175;42.606;23.388;2023-02-26T02:24:36;92501.91;;;13.24;43.90
10261;BME280;5175;42.606;23.388;2023-02-26T02:27:18;92504.34;;;13.17;45.41
10261;BME280;5175;42.606;23.388;2023-02-26T02:30:07;92531.34;;;13.33;43.48
10261;BME280;5175;42.606;23.388;2023-02-26T02:32:38;92528.56;;;13.41;42.93
10261;BME280;5175;42.606;23.388;2023-02-26T02:35:14;92440.94;;;13.00;43.66
10261;BME280;5175;42.606;23.388;2023-02-26T02:37:47;92508.09;;;13.16;44.95
10261;BME280;5175;42.606;23.388;2023-02-26T02:40:19;92538.09;;;13.09;44.81
10261;BME280;5175;42.606;23.388;2023-02-26T02:42:52;92497.84;;;13.18;43.24
10261;BME280;5175;42.606;23.388;2023-02-26T02:45:23;92510.56;;;13.50;42.57
10261;BME280;5175;42.606;23.388;2023-02-26T02:47:56;92521.66;;;13.40;42.98
10261;BME280;5175;42.606;23.388;2023-02-26T02:50:30;92529.09;;;13.35;42.90
10261;BME280;5175;42.606;23.388;2023-02-26T02:53:01;92542.34;;;13.31;43.25
10261;BME280;5175;42.606;23.388;2023-02-26T02:55:33;92560.59;;;13.38;42.84
10261;BME280;5175;42.606;23.388;2023-02-26T02:58:03;92465.91;;;13.54;41.86
10261;BME280;5175;42.606;23.388;2023-02-26T03:00:33;92511.66;;;13.29;42.83
10261;BME280;5175;42.606;23.388;2023-02-26T03:03:07;92468.38;;;13.18;43.30
10261;BME280;5175;42.606;23.388;2023-02-26T03:05:36;92509.31;;;13.27;42.96
10261;BME280;5175;42.606;23.388;2023-02-26T03:08:13;92523.41;;;13.36;42.56
10261;BME280;5175;42.606;23.388;2023-02-26T03:10:41;92507.53;;;13.31;42.95
10261;BME280;5175;42.606;23.388;2023-02-26T03:13:14;92511.97;;;13.27;42.61
10261;BME280;5175;42.606;23.388;2023-02-26T03:15:48;92520.88;;;13.40;42.06
10261;BME280;5175;42.606;23.388;2023-02-26T03:18:30;92514.19;;;13.46;41.74
10261;BME280;5175;42.606;23.388;2023-02-26T03:21:04;92523.38;;;13.45;41.62
10261;BME280;5175;42.606;23.388;2023-02-26T03:23:35;92527.13;;;13.44;41.27
10261;BME280;5175;42.606;23.388;2023-02-26T03:26:12;92505.13;;;13.59;40.97
10261;BME280;5175;42.606;23.388;2023-02-26T03:28:43;92516.75;;;13.42;41.67
10261;BME280;5175;42.606;23.388;2023-02-26T03:31:15;92524.25;;;13.49;41.15
10261;BME280;5175;42.606;23.388;2023-02-26T03:33:51;92515.44;;;13.48;41.09
10261;BME280;5175;42.606;23.388;2023-02-26T03:36:23;92519.31;;;13.59;41.42
10261;BME280;5175;42.606;23.388;2023-02-26T03:38:58;92522.63;;;13.56;41.20
10261;BME280;5175;42.606;23.388;2023-02-26T03:41:31;92519.94;;;13.36;42.27
10261;BME280;5175;42.606;23.388;2023-02-26T03:44:04;92493.03;;;13.32;41.38
10261;BME280;5175;42.606;23.388;2023-02-26T03:46:35;92520.03;;;13.48;41.28
10261;BME280;5175;42.606;23.388;2023-02-26T03:49:09;92512.44;;;13.50;41.36
10261;BME280;5175;42.606;23.388;2023-02-26T03:51:37;92515.72;;;13.55;41.35
10261;BME280;5175;42.606;23.388;2023-02-26T03:54:10;92525.50;;;13.31;42.15
10261;BME280;5175;42.606;23.388;2023-02-26T03:56:41;92528.31;;;13.34;42.42
10261;BME280;5175;42.606;23.388;2023-02-26T03:59:09;92528.31;;;13.34;42.34
10261;BME280;5175;42.606;23.388;2023-02-26T04:01:41;92509.22;;;13.36;41.85
10261;BME280;5175;42.606;23.388;2023-02-26T04:04:14;92494.69;;;13.45;41.68
10261;BME280;5175;42.606;23.388;2023-02-26T04:06:42;92516.81;;;13.34;42.15
10261;BME280;5175;42.606;23.388;2023-02-26T04:09:10;92499.25;;;13.24;41.82
10261;BME280;5175;42.606;23.388;2023-02-26T04:11:37;92518.13;;;13.48;41.22
10261;BME280;5175;42.606;23.388;2023-02-26T04:14:05;92499.75;;;13.38;41.34
10261;BME280;5175;42.606;23.388;2023-02-26T04:16:32;92502.03;;;13.48;41.01
10261;BME280;5175;42.606;23.388;2023-02-26T04:18:58;92481.72;;;13.27;41.84
10261;BME280;5175;42.606;23.388;2023-02-26T04:21:27;92485.59;;;13.38;41.60
10261;BME280;5175;42.606;23.388;2023-02-26T04:23:53;92491.53;;;13.43;41.44
10261;BME280;5175;42.606;23.388;2023-02-26T04:26:20;92463.19;;;13.42;41.63
10261;BME280;5175;42.606;23.388;2023-02-26T04:28:47;92430.50;;;13.07;41.65
10261;BME280;5175;42.606;23.388;2023-02-26T04:31:14;92410.16;;;12.65;42.11
10261;BME280;5175;42.606;23.388;2023-02-26T04:33:41;92472.13;;;13.26;42.09
10261;BME280;5175;42.606;23.388;2023-02-26T04:36:08;92461.84;;;13.28;41.64
10261;BME280;5175;42.606;23.388;2023-02-26T04:38:36;92463.44;;;13.29;41.65
10261;BME280;5175;42.606;23.388;2023-02-26T04:41:04;92432.53;;;13.31;41.62
10261;BME280;5175;42.606;23.388;2023-02-26T04:43:31;92445.41;;;13.17;41.91
10261;BME280;5175;42.606;23.388;2023-02-26T04:45:58;92434.38;;;13.18;41.48
10261;BME280;5175;42.606;23.388;2023-02-26T04:48:26;92441.63;;;13.18;41.57
10261;BME280;5175;42.606;23.388;2023-02-26T04:50:53;92426.69;;;13.17;41.32
10261;BME280;5175;42.606;23.388;2023-02-26T04:53:20;92418.09;;;13.24;40.44
10261;BME280;5175;42.606;23.388;2023-02-26T04:55:48;92410.25;;;13.39;40.34
10261;BME280;5175;42.606;23.388;2023-02-26T04:58:15;92427.38;;;13.26;40.91
10261;BME280;5175;42.606;23.388;2023-02-26T05:00:42;92448.75;;;13.14;40.99
10261;BME280;5175;42.606;23.388;2023-02-26T05:03:09;92389.19;;;13.17;40.72
10261;BME280;5175;42.606;23.388;2023-02-26T05:05:37;92412.88;;;13.27;40.59
10261;BME280;5175;42.606;23.388;2023-02-26T05:08:04;92443.44;;;13.26;40.28
10261;BME280;5175;42.606;23.388;2023-02-26T05:10:31;92412.19;;;13.30;39.90
10261;BME280;5175;42.606;23.388;2023-02-26T05:12:59;92428.00;;;13.44;39.58
10261;BME280;5175;42.606;23.388;2023-02-26T05:15:26;92446.47;;;13.45;39.63
10261;BME280;5175;42.606;23.388;2023-02-26T05:17:53;92453.03;;;13.68;38.95
10261;BME280;5175;42.606;23.388;2023-02-26T05:20:20;92434.91;;;13.65;39.36
10261;BME280;5175;42.606;23.388;2023-02-26T05:22:47;92426.56;;;13.79;38.81
10261;BME280;5175;42.606;23.388;2023-02-26T05:25:14;92430.16;;;13.71;38.90
10261;BME280;5175;42.606;23.388;2023-02-26T05:27:41;92433.84;;;13.78;38.90
10261;BME280;5175;42.606;23.388;2023-02-26T05:30:13;92444.44;;;13.75;39.22
10261;BME280;5175;42.606;23.388;2023-02-26T05:32:40;92430.69;;;13.76;39.29
10261;BME280;5175;42.606;23.388;2023-02-26T05:35:07;92409.81;;;13.70;39.17
10261;BME280;5175;42.606;23.388;2023-02-26T05:37:34;92423.81;;;13.88;39.05
10261;BME280;5175;42.606;23.388;2023-02-26T05:40:03;92457.56;;;13.89;38.60
10261;BME280;5175;42.606;23.388;2023-02-26T05:42:30;92424.81;;;13.83;38.84
10261;BME280;5175;42.606;23.388;2023-02-26T05:44:56;92412.19;;;13.84;38.96
10261;BME280;5175;42.606;23.388;2023-02-26T05:47:25;92404.63;;;13.98;38.36
10261;BME280;5175;42.606;23.388;2023-02-26T05:49:51;92408.66;;;13.92;38.47
10261;BME280;5175;42.606;23.388;2023-02-26T05:52:18;92413.31;;;13.95;38.56
10261;BME280;5175;42.606;23.388;2023-02-26T05:54:45;92405.31;;;14.07;38.07
10261;BME280;5175;42.606;23.388;2023-02-26T05:57:12;92440.41;;;14.14;38.13
10261;BME280;5175;42.606;23.388;2023-02-26T05:59:39;92447.88;;;14.08;38.24
10261;BME280;5175;42.606;23.388;2023-02-26T06:02:06;92435.03;;;14.02;38.56
10261;BME280;5175;42.606;23.388;2023-02-26T06:04:35;92424.09;;;14.07;38.29
10261;BME280;5175;42.606;23.388;2023-02-26T06:07:02;92431.38;;;14.30;37.41
10261;BME280;5175;42.606;23.388;2023-02-26T06:09:28;92417.00;;;14.35;37.57
10261;BME280;5175;42.606;23.388;2023-02-26T06:11:55;92422.66;;;14.21;38.04
10261;BME280;5175;42.606;23.388;2023-02-26T06:14:23;92437.34;;;14.36;37.04
10261;BME280;5175;42.606;23.388;2023-02-26T06:16:50;92406.06;;;14.40;37.10
10261;BME280;5175;42.606;23.388;2023-02-26T06:19:17;92418.47;;;14.45;36.89
10261;BME280;5175;42.606;23.388;2023-02-26T06:21:47;92415.44;;;14.46;37.12
10261;BME280;5175;42.606;23.388;2023-02-26T06:24:14;92420.25;;;14.40;37.40
10261;BME280;5175;42.606;23.388;2023-02-26T06:26:41;92437.38;;;14.60;36.82
10261;BME280;5175;42.606;23.388;2023-02-26T06:29:08;92417.03;;;14.71;36.40
10261;BME280;5175;42.606;23.388;2023-02-26T06:31:35;92422.25;;;14.68;36.38
10261;BME280;5175;42.606;23.388;2023-02-26T06:34:02;92451.69;;;14.76;36.38
10261;BME280;5175;42.606;23.388;2023-02-26T06:36:29;92440.84;;;14.73;35.92
10261;BME280;5175;42.606;23.388;2023-02-26T06:38:59;92431.66;;;14.86;36.17
10261;BME280;5175;42.606;23.388;2023-02-26T06:41:26;92441.38;;;14.90;35.82
10261;BME280;5175;42.606;23.388;2023-02-26T06:43:53;92417.88;;;14.87;35.47
10261;BME280;5175;42.606;23.388;2023-02-26T06:46:19;92412.88;;;14.74;35.57
10261;BME280;5175;42.606;23.388;2023-02-26T06:48:46;92436.44;;;14.92;35.51
10261;BME280;5175;42.606;23.388;2023-02-26T06:51:13;92455.00;;;14.97;35.21
10261;BME280;5175;42.606;23.388;2023-02-26T06:53:40;92438.00;;;15.05;35.04
10261;BME280;5175;42.606;23.388;2023-02-26T06:56:08;92423.69;;;15.01;34.99
10261;BME280;5175;42.606;23.388;2023-02-26T06:58:35;92420.88;;;14.98;35.28
10261;BME280;5175;42.606;23.388;2023-02-26T07:01:05;92431.84;;;15.05;35.11
10261;BME280;5175;42.606;23.388;2023-02-26T07:03:32;92431.63;;;14.98;35.26
10261;BME280;5175;42.606;23.388;2023-02-26T07:05:59;92428.47;;;15.08;35.36
10261;BME280;5175;42.606;23.388;2023-02-26T07:08:26;92432.38;;;15.23;35.05
10261;BME280;5175;42.606;23.388;2023-02-26T07:10:53;92416.13;;;15.31;34.90
10261;BME280;5175;42.606;23.388;2023-02-26T07:13:21;92406.34;;;15.39;34.66
10261;BME280;5175;42.606;23.388;2023-02-26T07:15:48;92440.16;;;15.52;34.58
10261;BME280;5175;42.606;23.388;2023-02-26T07:18:15;92427.63;;;15.56;33.96
10261;BME280;5175;42.606;23.388;2023-02-26T07:20:42;92387.72;;;15.58;33.64
10261;BME280;5175;42.606;23.388;2023-02-26T07:23:09;92392.94;;;15.66;34.13
10261;BME280;5175;42.606;23.388;2023-02-26T07:25:36;92407.31;;;15.86;33.75
10261;BME280;5175;42.606;23.388;2023-02-26T07:28:04;92406.63;;;15.89;33.42
10261;BME280;5175;42.606;23.388;2023-02-26T07:30:33;92402.13;;;15.93;32.32
10261;BME280;5175;42.606;23.388;2023-02-26T07:32:59;92399.28;;;16.02;32.40
10261;BME280;5175;42.606;23.388;2023-02-26T07:35:26;92379.75;;;16.05;32.54
10261;BME280;5175;42.606;23.388;2023-02-26T07:37:53;92380.72;;;16.12;32.38
10261;BME280;5175;42.606;23.388;2023-02-26T07:40:20;92467.19;;;16.26;31.73
10261;BME280;5175;42.606;23.388;2023-02-26T07:42:46;92439.19;;;16.15;32.01
10261;BME280;5175;42.606;23.388;2023-02-26T07:45:13;92415.53;;;16.37;31.44
10261;BME280;5175;42.606;23.388;2023-02-26T07:47:44;92391.47;;;16.28;30.97
10261;BME280;5175;42.606;23.388;2023-02-26T07:50:11;92420.94;;;16.52;31.23
10261;BME280;5175;42.606;23.388;2023-02-26T07:52:38;92420.84;;;16.80;31.23
10261;BME280;5175;42.606;23.388;2023-02-26T07:55:06;92316.56;;;16.30;30.83
10261;BME280;5175;42.606;23.388;2023-02-26T07:57:33;92412.84;;;16.68;30.55
10261;BME280;5175;42.606;23.388;2023-02-26T08:00:00;92383.94;;;16.65;30.54
10261;BME280;5175;42.606;23.388;2023-02-26T08:02:29;92402.63;;;16.58;30.25
10261;BME280;5175;42.606;23.388;2023-02-26T08:04:57;92365.19;;;16.53;31.04
10261;BME280;5175;42.606;23.388;2023-02-26T08:07:24;92458.97;;;16.51;30.97
10261;BME280;5175;42.606;23.388;2023-02-26T08:09:50;92394.88;;;16.56;30.68
10261;BME280;5175;42.606;23.388;2023-02-26T08:12:17;92486.53;;;16.60;30.49
10261;BME280;5175;42.606;23.388;2023-02-26T08:14:45;92408.59;;;16.67;30.86
10261;BME280;5175;42.606;23.388;2023-02-26T08:17:12;92427.28;;;16.75;30.25
10261;BME280;5175;42.606;23.388;2023-02-26T08:19:39;92431.97;;;16.78;30.29
10261;BME280;5175;42.606;23.388;2023-02-26T08:22:07;92429.59;;;16.77;30.21
10261;BME280;5175;42.606;23.388;2023-02-26T08:24:34;92436.56;;;16.78;30.64
10261;BME280;5175;42.606;23.388;2023-02-26T08:27:01;92412.56;;;16.88;30.12
10261;BME280;5175;42.606;23.388;2023-02-26T08:29:28;92400.69;;;16.89;29.78
10261;BME280;5175;42.606;23.388;2023-02-26T08:31:55;92415.88;;;16.82;30.27
10261;BME280;5175;42.606;23.388;2023-02-26T08:34:21;92449.69;;;16.79;30.02
10261;BME280;5175;42.606;23.388;2023-02-26T08:36:48;92416.88;;;16.74;30.21
10261;BME280;5175;42.606;23.388;2023-02-26T08:39:17;92418.50;;;16.78;29.94
10261;BME280;5175;42.606;23.388;2023-02-26T08:41:43;92429.00;;;16.99;29.87
10261;BME280;5175;42.606;23.388;2023-02-26T08:44:10;92492.34;;;16.77;29.78
10261;BME280;5175;42.606;23.388;2023-02-26T08:46:37;92487.47;;;16.83;29.58
10261;BME280;5175;42.606;23.388;2023-02-26T08:49:04;92462.09;;;17.00;30.52
10261;BME280;5175;42.606;23.388;2023-02-26T08:51:31;92489.28;;;17.10;29.16
10261;BME280;5175;42.606;23.388;2023-02-26T08:53:58;92453.81;;;17.08;29.77
10261;BME280;5175;42.606;23.388;2023-02-26T08:56:26;92450.28;;;17.39;29.32
10261;BME280;5175;42.606;23.388;2023-02-26T08:58:53;92469.50;;;17.53;29.45
10261;BME280;5175;42.606;23.388;2023-02-26T09:01:20;92444.03;;;17.35;28.81
10261;BME280;5175;42.606;23.388;2023-02-26T09:03:47;92458.75;;;17.57;28.97
10261;BME280;5175;42.606;23.388;2023-02-26T09:06:13;92459.66;;;17.99;28.53
10261;BME280;5175;42.606;23.388;2023-02-26T09:08:41;92451.56;;;17.99;28.41
10261;BME280;5175;42.606;23.388;2023-02-26T09:11:08;92461.09;;;18.35;28.74
10261;BME280;5175;42.606;23.388;2023-02-26T09:13:36;92473.09;;;18.37;27.50
10261;BME280;5175;42.606;23.388;2023-02-26T09:16:04;92533.28;;;18.38;27.44
10261;BME280;5175;42.606;23.388;2023-02-26T09:18:31;92489.41;;;18.02;27.58
10261;BME280;5175;42.606;23.388;2023-02-26T09:20:58;92494.44;;;18.23;27.33
10261;BME280;5175;42.606;23.388;2023-02-26T09:23:24;92466.91;;;18.37;26.88
10261;BME280;5175;42.606;23.388;2023-02-26T09:25:52;92484.03;;;18.44;27.87
10261;BME280;5175;42.606;23.388;2023-02-26T09:28:20;92473.53;;;18.58;26.85
10261;BME280;5175;42.606;23.388;2023-02-26T09:30:50;92500.88;;;18.57;27.15
10261;BME280;5175;42.606;23.388;2023-02-26T09:33:17;92476.41;;;18.92;27.10
10261;BME280;5175;42.606;23.388;2023-02-26T09:35:46;92473.09;;;18.79;27.52
10261;BME280;5175;42.606;23.388;2023-02-26T09:38:14;92471.53;;;19.27;26.69
10261;BME280;5175;42.606;23.388;2023-02-26T09:40:44;92515.22;;;19.52;26.10
10261;BME280;5175;42.606;23.388;2023-02-26T09:46:07;92475.81;;;19.28;25.41
10261;BME280;5175;42.606;23.388;2023-02-26T09:48:37;92439.22;;;19.08;25.49
10261;BME280;5175;42.606;23.388;2023-02-26T09:51:08;92435.41;;;19.12;26.07
10261;BME280;5175;42.606;23.388;2023-02-26T09:53:40;92467.75;;;19.05;25.38
10261;BME280;5175;42.606;23.388;2023-02-26T09:56:13;92445.28;;;19.27;25.06
10261;BME280;5175;42.606;23.388;2023-02-26T09:58:42;92434.34;;;19.43;25.87
10261;BME280;5175;42.606;23.388;2023-02-26T10:01:13;92491.94;;;18.98;25.86
10261;BME280;5175;42.606;23.388;2023-02-26T10:03:56;92464.94;;;18.75;26.32
10261;BME280;5175;42.606;23.388;2023-02-26T10:06:31;92465.03;;;18.83;25.74
10261;BME280;5175;42.606;23.388;2023-02-26T10:09:21;92428.69;;;18.54;25.82
10261;BME280;5175;42.606;23.388;2023-02-26T10:11:56;92450.28;;;18.35;26.46
10261;BME280;5175;42.606;23.388;2023-02-26T10:14:32;92434.38;;;18.30;26.52
10261;BME280;5175;42.606;23.388;2023-02-26T10:17:06;92438.19;;;18.06;26.74
10261;BME280;5175;42.606;23.388;2023-02-26T10:19:42;92418.88;;;18.04;27.49
10261;BME280;5175;42.606;23.388;2023-02-26T10:22:15;92403.47;;;17.85;26.83
10261;BME280;5175;42.606;23.388;2023-02-26T10:24:49;92402.13;;;17.95;27.41
10261;BME280;5175;42.606;23.388;2023-02-26T10:27:21;92415.50;;;18.30;27.71
10261;BME280;5175;42.606;23.388;2023-02-26T10:29:58;92412.88;;;18.14;27.57
10261;BME280;5175;42.606;23.388;2023-02-26T10:32:33;92407.75;;;18.28;27.90
10261;BME280;5175;42.606;23.388;2023-02-26T10:35:05;92415.59;;;18.14;27.82
10261;BME280;5175;42.606;23.388;2023-02-26T10:37:43;92392.25;;;17.83;27.80
10261;BME280;5175;42.606;23.388;2023-02-26T10:40:17;92388.34;;;17.62;28.59
10261;BME280;5175;42.606;23.388;2023-02-26T10:42:47;92363.44;;;17.49;28.77
10261;BME280;5175;42.606;23.388;2023-02-26T10:45:32;92372.47;;;17.57;28.88
10261;BME280;5175;42.606;23.388;2023-02-26T10:48:17;92370.56;;;17.76;28.58
10261;BME280;5175;42.606;23.388;2023-02-26T10:50:50;92362.91;;;18.01;27.95
10261;BME280;5175;42.606;23.388;2023-02-26T10:53:18;92345.03;;;17.93;28.62
10261;BME280;5175;42.606;23.388;2023-02-26T10:55:48;92393.47;;;17.86;28.82
10261;BME280;5175;42.606;23.388;2023-02-26T10:58:19;92376.16;;;17.87;28.85
10261;BME280;5175;42.606;23.388;2023-02-26T11:00:49;92396.28;;;17.93;28.97
10261;BME280;5175;42.606;23.388;2023-02-26T11:03:29;92383.97;;;17.92;28.84
10261;BME280;5175;42.606;23.388;2023-02-26T11:05:57;92393.50;;;18.08;29.20
10261;BME280;5175;42.606;23.388;2023-02-26T11:08:26;92378.28;;;18.20;28.74
10261;BME280;5175;42.606;23.388;2023-02-26T11:10:55;92389.91;;;18.01;28.18
10261;BME280;5175;42.606;23.388;2023-02-26T11:13:24;92377.25;;;17.63;28.48
10261;BME280;5175;42.606;23.388;2023-02-26T11:15:53;92384.66;;;17.70;28.98
10261;BME280;5175;42.606;23.388;2023-02-26T11:18:24;92364.81;;;17.59;29.25
10261;BME280;5175;42.606;23.388;2023-02-26T11:20:53;92363.09;;;17.50;29.64
10261;BME280;5175;42.606;23.388;2023-02-26T11:23:25;92355.69;;;17.47;29.51
10261;BME280;5175;42.606;23.388;2023-02-26T11:25:56;92375.16;;;17.76;29.32
10261;BME280;5175;42.606;23.388;2023-02-26T11:28:31;92377.50;;;17.77;29.54
10261;BME280;5175;42.606;23.388;2023-02-26T11:31:00;92385.44;;;17.89;29.77
10261;BME280;5175;42.606;23.388;2023-02-26T11:33:34;92374.81;;;17.58;29.97
10261;BME280;5175;42.606;23.388;2023-02-26T11:36:07;92407.63;;;17.79;29.87
10261;BME280;5175;42.606;23.388;2023-02-26T11:38:36;92401.97;;;17.49;30.18
10261;BME280;5175;42.606;23.388;2023-02-26T11:41:05;92368.59;;;17.38;30.73
10261;BME280;5175;42.606;23.388;2023-02-26T11:43:35;92399.00;;;17.55;30.42
10261;BME280;5175;42.606;23.388;2023-02-26T11:46:04;92404.06;;;17.75;29.98
10261;BME280;5175;42.606;23.388;2023-02-26T11:48:38;92406.25;;;17.89;29.22
10261;BME280;5175;42.606;23.388;2023-02-26T11:51:07;92449.06;;;17.90;29.29
10261;BME280;5175;42.606;23.388;2023-02-26T11:53:41;92423.66;;;17.91;28.99
10261;BME280;5175;42.606;23.388;2023-02-26T11:56:11;92435.16;;;17.69;29.87
10261;BME280;5175;42.606;23.388;2023-02-26T11:58:44;92451.25;;;17.85;29.44
10261;BME280;5175;42.606;23.388;2023-02-26T12:01:12;92435.41;;;17.64;30.47
10261;BME280;5175;42.606;23.388;2023-02-26T12:03:47;92452.66;;;17.60;31.03
10261;BME280;5175;42.606;23.388;2023-02-26T12:06:17;92459.28;;;17.46;30.60
10261;BME280;5175;42.606;23.388;2023-02-26T12:08:45;92449.13;;;17.56;30.57
10261;BME280;5175;42.606;23.388;2023-02-26T12:11:42;92448.16;;;17.48;30.62
10261;BME280;5175;42.606;23.388;2023-02-26T12:17:11;92442.72;;;17.29;31.35
10261;BME280;5175;42.606;23.388;2023-02-26T12:19:46;92426.94;;;17.27;31.42
10261;BME280;5175;42.606;23.388;2023-02-26T12:22:36;92459.50;;;17.38;31.79
10261;BME280;5175;42.606;23.388;2023-02-26T12:28:42;92462.66;;;17.24;32.22
10261;BME280;5175;42.606;23.388;2023-02-26T12:31:34;92511.25;;;17.43;32.92
10261;BME280;5175;42.606;23.388;2023-02-26T12:34:20;92522.78;;;17.60;32.00
10261;BME280;5175;42.606;23.388;2023-02-26T12:37:02;92516.19;;;17.92;30.69
10261;BME280;5175;42.606;23.388;2023-02-26T12:39:42;92525.91;;;17.96;32.00
10261;BME280;5175;42.606;23.388;2023-02-26T12:42:17;92538.69;;;17.99;31.49
10261;BME280;5175;42.606;23.388;2023-02-26T12:45:03;92544.47;;;18.17;30.85
10261;BME280;5175;42.606;23.388;2023-02-26T12:47:40;92549.84;;;18.36;31.00
10261;BME280;5175;42.606;23.388;2023-02-26T12:50:29;92514.75;;;18.55;31.12
10261;BME280;5175;42.606;23.388;2023-02-26T12:53:17;92537.44;;;18.51;30.62
10261;BME280;5175;42.606;23.388;2023-02-26T12:55:57;92521.13;;;18.66;29.82
10261;BME280;5175;42.606;23.388;2023-02-26T12:58:52;92527.28;;;18.86;30.17
10261;BME280;5175;42.606;23.388;2023-02-26T13:01:35;92529.44;;;19.00;29.52
10261;BME280;5175;42.606;23.388;2023-02-26T13:07:24;92556.72;;;18.34;30.60
10261;BME280;5175;42.606;23.388;2023-02-26T13:10:03;92542.69;;;18.25;30.64
10261;BME280;5175;42.606;23.388;2023-02-26T13:12:40;92548.69;;;18.18;31.73
10261;BME280;5175;42.606;23.388;2023-02-26T13:15:23;92523.75;;;18.44;31.09
10261;BME280;5175;42.606;23.388;2023-02-26T13:17:56;92534.66;;;18.66;30.90
10261;BME280;5175;42.606;23.388;2023-02-26T13:20:28;92527.66;;;18.65;31.87
10261;BME280;5175;42.606;23.388;2023-02-26T13:22:58;92531.06;;;18.82;29.79
10261;BME280;5175;42.606;23.388;2023-02-26T13:25:34;92515.38;;;18.91;31.63
10261;BME280;5175;42.606;23.388;2023-02-26T13:28:06;92517.34;;;19.39;31.39
10261;BME280;5175;42.606;23.388;2023-02-26T13:30:39;92512.84;;;20.03;30.98